sensor_id;sensor_type;location;lat;lon;timestamp;pressure;altitude;pressure_sealevel;temperature;humidity
6136;BME280;24008;42.664;23.372;2023-07-20T00:00:06;94480.38;;;22.84;59.88
6136;BME280;24008;42.664;23.372;2023-07-20T00:02:34;94483.19;;;22.83;59.76
6136;BME280;24008;42.664;23.372;2023-07-20T00:05:01;94415.19;;;22.43;58.88
6136;BME280;24008;42.664;23.372;2023-07-20T00:07:29;94454.03;;;22.74;58.64
6136;BME280;24008;42.664;23.372;2023-07-20T00:09:56;94441.50;;;22.83;57.78
6136;BME280;24008;42.664;23.372;2023-07-20T00:12:22;94463.56;;;23.10;57.36
6136;BME280;24008;42.664;23.372;2023-07-20T00:14:49;94463.47;;;23.17;57.29
6136;BME280;24008;42.664;23.372;2023-07-20T00:17:19;94454.03;;;23.04;58.08
6136;BME280;24008;42.664;23.372;2023-07-20T00:19:46;94476.38;;;23.12;58.72
6136;BME280;24008;42.664;23.372;2023-07-20T00:22:13;94441.97;;;22.80;59.82
6136;BME280;24008;42.664;23.372;2023-07-20T00:24:41;94403.28;;;22.35;60.15
6136;BME280;24008;42.664;23.372;2023-07-20T00:27:08;94452.50;;;22.55;61.05
6136;BME280;24008;42.664;23.372;2023-07-20T00:29:35;94479.72;;;22.71;60.74
6136;BME280;24008;42.664;23.372;2023-07-20T00:32:02;94471.34;;;22.69;61.22
6136;BME280;24008;42.664;23.372;2023-07-20T00:34:30;94409.44;;;22.22;61.42
6136;BME280;24008;42.664;23.372;2023-07-20T00:36:56;94378.09;;;21.99;62.26
6136;BME280;24008;42.664;23.372;2023-07-20T00:39:23;94469.94;;;22.54;61.70
6136;BME280;24008;42.664;23.372;2023-07-20T00:41:51;94444.44;;;22.26;62.52
6136;BME280;24008;42.664;23.372;2023-07-20T00:44:18;94409.91;;;22.01;62.94
6136;BME280;24008;42.664;23.372;2023-07-20T00:46:45;94432.31;;;22.20;64.05
6136;BME280;24008;42.664;23.372;2023-07-20T00:49:12;94459.63;;;22.30;65.88
6136;BME280;24008;42.664;23.372;2023-07-20T00:51:38;94475.56;;;22.21;66.54
6136;BME280;24008;42.664;23.372;2023-07-20T00:54:05;94469.63;;;22.14;67.28
6136;BME280;24008;42.664;23.372;2023-07-20T00:56:33;94349.72;;;21.25;68.65
6136;BME280;24008;42.664;23.372;2023-07-20T00:59:02;94411.66;;;21.71;69.77
6136;BME280;24008;42.664;23.372;2023-07-20T01:01:29;94419.28;;;21.66;71.02
6136;BME280;24008;42.664;23.372;2023-07-20T01:03:55;94446.06;;;21.73;72.46
6136;BME280;24008;42.664;23.372;2023-07-20T01:06:29;94454.31;;;21.63;72.78
6136;BME280;24008;42.664;23.372;2023-07-20T01:09:05;94458.59;;;21.58;73.25
6136;BME280;24008;42.664;23.372;2023-07-20T01:11:38;94462.41;;;21.55;73.64
6136;BME280;24008;42.664;23.372;2023-07-20T01:14:11;94479.66;;;21.49;74.19
6136;BME280;24008;42.664;23.372;2023-07-20T01:16:38;94447.84;;;21.29;74.76
6136;BME280;24008;42.664;23.372;2023-07-20T01:19:05;94472.13;;;21.41;75.37
6136;BME280;24008;42.664;23.372;2023-07-20T01:21:38;94409.50;;;21.00;75.60
6136;BME280;24008;42.664;23.372;2023-07-20T01:27:26;94440.56;;;21.13;73.92
6136;BME280;24008;42.664;23.372;2023-07-20T01:30:14;94445.47;;;21.28;74.83
6136;BME280;24008;42.664;23.372;2023-07-20T01:32:44;94457.88;;;21.26;75.20
6136;BME280;24008;42.664;23.372;2023-07-20T01:35:14;94461.25;;;21.26;75.55
6136;BME280;24008;42.664;23.372;2023-07-20T01:37:43;94461.72;;;21.23;76.48
6136;BME280;24008;42.664;23.372;2023-07-20T01:40:12;94470.94;;;21.19;77.36
6136;BME280;24008;42.664;23.372;2023-07-20T01:42:43;94406.22;;;20.79;78.15
6136;BME280;24008;42.664;23.372;2023-07-20T01:45:10;94426.34;;;20.91;78.58
6136;BME280;24008;42.664;23.372;2023-07-20T01:47:37;94395.69;;;20.74;79.10
6136;BME280;24008;42.664;23.372;2023-07-20T01:50:06;94445.50;;;20.96;79.70
6136;BME280;24008;42.664;23.372;2023-07-20T01:52:33;94369.53;;;20.44;80.07
6136;BME280;24008;42.664;23.372;2023-07-20T01:55:00;94450.91;;;20.95;80.08
6136;BME280;24008;42.664;23.372;2023-07-20T01:57:27;94455.91;;;20.90;81.13
6136;BME280;24008;42.664;23.372;2023-07-20T01:59:53;94454.38;;;20.82;81.97
6136;BME280;24008;42.664;23.372;2023-07-20T02:02:20;94450.59;;;20.78;82.23
6136;BME280;24008;42.664;23.372;2023-07-20T02:04:47;94428.97;;;20.59;82.89
6136;BME280;24008;42.664;23.372;2023-07-20T02:07:15;94420.84;;;20.49;82.84
6136;BME280;24008;42.664;23.372;2023-07-20T02:09:41;94445.88;;;20.68;82.68
6136;BME280;24008;42.664;23.372;2023-07-20T02:12:09;94425.19;;;20.55;82.50
6136;BME280;24008;42.664;23.372;2023-07-20T02:14:35;94388.53;;;20.32;83.05
6136;BME280;24008;42.664;23.372;2023-07-20T02:17:02;94442.31;;;20.63;83.38
6136;BME280;24008;42.664;23.372;2023-07-20T02:19:29;94403.13;;;20.33;83.50
6136;BME280;24008;42.664;23.372;2023-07-20T02:21:56;94384.03;;;20.21;83.73
6136;BME280;24008;42.664;23.372;2023-07-20T02:24:25;94445.94;;;20.55;84.16
6136;BME280;24008;42.664;23.372;2023-07-20T02:26:51;94447.00;;;20.47;85.28
6136;BME280;24008;42.664;23.372;2023-07-20T02:29:18;94446.81;;;20.42;85.25
6136;BME280;24008;42.664;23.372;2023-07-20T02:31:45;94439.47;;;20.39;85.11
6136;BME280;24008;42.664;23.372;2023-07-20T02:34:12;94447.47;;;20.38;84.82
6136;BME280;24008;42.664;23.372;2023-07-20T02:36:38;94452.66;;;20.38;84.86
6136;BME280;24008;42.664;23.372;2023-07-20T02:39:07;94439.06;;;20.36;84.78
6136;BME280;24008;42.664;23.372;2023-07-20T02:41:36;94429.28;;;20.38;84.82
6136;BME280;24008;42.664;23.372;2023-07-20T02:44:02;94423.50;;;20.36;85.00
6136;BME280;24008;42.664;23.372;2023-07-20T02:46:29;94393.41;;;20.22;85.39
6136;BME280;24008;42.664;23.372;2023-07-20T02:48:56;94391.66;;;20.16;85.64
6136;BME280;24008;42.664;23.372;2023-07-20T02:51:23;94393.41;;;20.22;85.63
6136;BME280;24008;42.664;23.372;2023-07-20T02:53:50;94407.13;;;20.29;86.02
6136;BME280;24008;42.664;23.372;2023-07-20T02:56:16;94385.28;;;20.11;86.33
6136;BME280;24008;42.664;23.372;2023-07-20T02:58:44;94391.66;;;20.16;86.03
6136;BME280;24008;42.664;23.372;2023-07-20T03:01:12;94417.56;;;20.22;86.26
6136;BME280;24008;42.664;23.372;2023-07-20T03:03:40;94413.59;;;20.13;85.94
6136;BME280;24008;42.664;23.372;2023-07-20T03:06:06;94415.56;;;20.18;86.45
6136;BME280;24008;42.664;23.372;2023-07-20T03:08:34;94371.81;;;19.83;86.59
6136;BME280;24008;42.664;23.372;2023-07-20T03:11:01;94421.19;;;20.14;86.57
6136;BME280;24008;42.664;23.372;2023-07-20T03:13:28;94282.09;;;19.24;86.17
6136;BME280;24008;42.664;23.372;2023-07-20T03:15:57;94420.00;;;20.10;86.50
6136;BME280;24008;42.664;23.372;2023-07-20T03:18:23;94422.81;;;20.09;86.61
6136;BME280;24008;42.664;23.372;2023-07-20T03:20:50;94441.16;;;20.07;86.65
6136;BME280;24008;42.664;23.372;2023-07-20T03:23:17;94437.19;;;20.05;86.82
6136;BME280;24008;42.664;23.372;2023-07-20T03:25:44;94431.63;;;20.01;86.93
6136;BME280;24008;42.664;23.372;2023-07-20T03:28:20;94340.63;;;19.45;86.64
6136;BME280;24008;42.664;23.372;2023-07-20T03:30:46;94385.28;;;19.67;86.48
6136;BME280;24008;42.664;23.372;2023-07-20T03:33:20;94419.91;;;19.92;86.03
6136;BME280;24008;42.664;23.372;2023-07-20T03:35:47;94436.56;;;20.09;86.21
6136;BME280;24008;42.664;23.372;2023-07-20T03:38:14;94428.97;;;20.14;86.22
6136;BME280;24008;42.664;23.372;2023-07-20T03:40:49;94353.16;;;19.68;85.71
6136;BME280;24008;42.664;23.372;2023-07-20T03:43:16;94441.28;;;20.26;85.56
6136;BME280;24008;42.664;23.372;2023-07-20T03:45:42;94387.34;;;19.96;85.14
6136;BME280;24008;42.664;23.372;2023-07-20T03:48:09;94400.00;;;20.18;85.00
6136;BME280;24008;42.664;23.372;2023-07-20T03:50:37;94397.63;;;20.16;84.64
6136;BME280;24008;42.664;23.372;2023-07-20T03:53:04;94441.41;;;20.51;84.39
6136;BME280;24008;42.664;23.372;2023-07-20T03:55:31;94443.78;;;20.52;83.45
6136;BME280;24008;42.664;23.372;2023-07-20T03:57:58;94440.56;;;20.57;82.91
6136;BME280;24008;42.664;23.372;2023-07-20T04:00:24;94444.13;;;20.62;82.32
6136;BME280;24008;42.664;23.372;2023-07-20T04:02:51;94415.47;;;20.44;82.63
6136;BME280;24008;42.664;23.372;2023-07-20T04:05:18;94453.25;;;20.71;82.12
6136;BME280;24008;42.664;23.372;2023-07-20T04:07:46;94319.50;;;19.93;81.90
6136;BME280;24008;42.664;23.372;2023-07-20T04:10:13;94428.28;;;20.70;81.39
6136;BME280;24008;42.664;23.372;2023-07-20T04:12:40;94397.97;;;20.64;80.34
6136;BME280;24008;42.664;23.372;2023-07-20T04:15:08;94426.59;;;20.82;79.44
6136;BME280;24008;42.664;23.372;2023-07-20T04:17:35;94445.44;;;21.03;78.67
6136;BME280;24008;42.664;23.372;2023-07-20T04:20:02;94403.97;;;20.90;78.40
6136;BME280;24008;42.664;23.372;2023-07-20T04:22:29;94433.53;;;21.20;77.17
6136;BME280;24008;42.664;23.372;2023-07-20T04:24:57;94423.31;;;21.25;76.12
6136;BME280;24008;42.664;23.372;2023-07-20T04:27:24;94434.00;;;21.35;75.80
6136;BME280;24008;42.664;23.372;2023-07-20T04:29:51;94402.94;;;21.22;75.72
6136;BME280;24008;42.664;23.372;2023-07-20T04:32:18;94436.75;;;21.40;75.24
6136;BME280;24008;42.664;23.372;2023-07-20T04:34:45;94431.34;;;21.42;75.05
6136;BME280;24008;42.664;23.372;2023-07-20T04:37:11;94434.69;;;21.49;74.90
6136;BME280;24008;42.664;23.372;2023-07-20T04:39:38;94412.50;;;21.65;73.58
6136;BME280;24008;42.664;23.372;2023-07-20T04:42:06;94427.22;;;22.44;70.79
6136;BME280;24008;42.664;23.372;2023-07-20T04:44:33;94414.03;;;23.22;66.30
6136;BME280;24008;42.664;23.372;2023-07-20T04:47:00;94412.19;;;23.81;63.41
6136;BME280;24008;42.664;23.372;2023-07-20T04:49:27;94392.38;;;24.08;61.69
6136;BME280;24008;42.664;23.372;2023-07-20T04:51:54;94415.16;;;24.81;60.51
6136;BME280;24008;42.664;23.372;2023-07-20T04:54:21;94413.03;;;25.45;59.18
6136;BME280;24008;42.664;23.372;2023-07-20T04:56:48;94388.41;;;25.79;57.04
6136;BME280;24008;42.664;23.372;2023-07-20T04:59:16;94391.44;;;26.15;55.44
6136;BME280;24008;42.664;23.372;2023-07-20T05:01:43;94413.59;;;26.78;55.19
6136;BME280;24008;42.664;23.372;2023-07-20T05:04:09;94394.69;;;27.03;54.21
6136;BME280;24008;42.664;23.372;2023-07-20T05:06:36;94408.31;;;27.37;53.60
6136;BME280;24008;42.664;23.372;2023-07-20T05:09:04;94395.31;;;27.52;52.43
6136;BME280;24008;42.664;23.372;2023-07-20T05:11:33;94395.38;;;27.67;51.04
6136;BME280;24008;42.664;23.372;2023-07-20T05:14:00;94419.59;;;28.26;47.92
6136;BME280;24008;42.664;23.372;2023-07-20T05:16:28;94418.06;;;28.41;47.74
6136;BME280;24008;42.664;23.372;2023-07-20T05:18:55;94424.66;;;28.48;47.27
6136;BME280;24008;42.664;23.372;2023-07-20T05:21:23;94429.22;;;28.88;45.40
6136;BME280;24008;42.664;23.372;2023-07-20T05:23:50;94398.97;;;29.26;44.02
6136;BME280;24008;42.664;23.372;2023-07-20T05:26:16;94426.31;;;29.71;43.22
6136;BME280;24008;42.664;23.372;2023-07-20T05:28:43;94428.38;;;29.99;45.12
6136;BME280;24008;42.664;23.372;2023-07-20T05:31:10;94426.31;;;29.81;46.35
6136;BME280;24008;42.664;23.372;2023-07-20T05:33:38;94414.72;;;29.77;45.78
6136;BME280;24008;42.664;23.372;2023-07-20T05:36:05;94410.19;;;29.93;43.69
6136;BME280;24008;42.664;23.372;2023-07-20T05:38:31;94431.19;;;30.23;44.86
6136;BME280;24008;42.664;23.372;2023-07-20T05:41:00;94391.38;;;30.20;44.13
6136;BME280;24008;42.664;23.372;2023-07-20T05:43:27;94433.50;;;30.40;44.34
6136;BME280;24008;42.664;23.372;2023-07-20T05:45:54;94442.25;;;30.30;45.29
6136;BME280;24008;42.664;23.372;2023-07-20T05:48:21;94452.28;;;30.83;44.17
6136;BME280;24008;42.664;23.372;2023-07-20T05:50:49;94433.13;;;31.11;43.06
6136;BME280;24008;42.664;23.372;2023-07-20T05:53:16;94452.78;;;31.58;42.15
6136;BME280;24008;42.664;23.372;2023-07-20T05:55:43;94377.66;;;31.11;41.24
6136;BME280;24008;42.664;23.372;2023-07-20T05:58:09;94434.75;;;31.36;42.44
6136;BME280;24008;42.664;23.372;2023-07-20T06:00:36;94435.69;;;31.16;41.67
6136;BME280;24008;42.664;23.372;2023-07-20T06:03:03;94425.63;;;31.23;42.60
6136;BME280;24008;42.664;23.372;2023-07-20T06:05:51;94446.13;;;31.36;40.19
6136;BME280;24008;42.664;23.372;2023-07-20T06:08:18;94403.00;;;31.12;39.34
6136;BME280;24008;42.664;23.372;2023-07-20T06:10:49;94371.16;;;30.59;40.29
6136;BME280;24008;42.664;23.372;2023-07-20T06:13:17;94438.81;;;31.23;41.02
6136;BME280;24008;42.664;23.372;2023-07-20T06:15:44;94440.72;;;32.04;39.64
6136;BME280;24008;42.664;23.372;2023-07-20T06:18:10;94419.41;;;32.19;39.84
6136;BME280;24008;42.664;23.372;2023-07-20T06:20:37;94440.97;;;32.32;40.57
6136;BME280;24008;42.664;23.372;2023-07-20T06:23:05;94395.13;;;31.89;40.28
6136;BME280;24008;42.664;23.372;2023-07-20T06:25:32;94415.78;;;32.77;39.00
6136;BME280;24008;42.664;23.372;2023-07-20T06:27:58;94400.22;;;32.70;39.83
6136;BME280;24008;42.664;23.372;2023-07-20T06:30:25;94416.00;;;32.80;38.54
6136;BME280;24008;42.664;23.372;2023-07-20T06:32:52;94415.91;;;32.85;38.85
6136;BME280;24008;42.664;23.372;2023-07-20T06:35:19;94419.66;;;33.17;38.02
6136;BME280;24008;42.664;23.372;2023-07-20T06:37:46;94371.06;;;33.26;37.06
6136;BME280;24008;42.664;23.372;2023-07-20T06:40:14;94423.59;;;33.98;37.00
6136;BME280;24008;42.664;23.372;2023-07-20T06:42:41;94407.47;;;34.22;35.53
6136;BME280;24008;42.664;23.372;2023-07-20T06:45:08;94384.72;;;33.47;36.79
6136;BME280;24008;42.664;23.372;2023-07-20T06:47:37;94417.44;;;33.56;36.65
6136;BME280;24008;42.664;23.372;2023-07-20T06:50:05;94423.00;;;33.22;37.28
6136;BME280;24008;42.664;23.372;2023-07-20T06:52:32;94084.50;;;31.21;37.42
6136;BME280;24008;42.664;23.372;2023-07-20T06:54:59;94423.28;;;33.40;37.20
6136;BME280;24008;42.664;23.372;2023-07-20T06:57:27;94388.84;;;33.21;37.25
6136;BME280;24008;42.664;23.372;2023-07-20T06:59:53;94420.63;;;33.86;36.66
6136;BME280;24008;42.664;23.372;2023-07-20T07:02:20;94425.72;;;33.69;36.81
6136;BME280;24008;42.664;23.372;2023-07-20T07:04:47;94403.66;;;33.41;37.00
6136;BME280;24008;42.664;23.372;2023-07-20T07:07:14;94448.38;;;33.75;37.04
6136;BME280;24008;42.664;23.372;2023-07-20T07:09:41;94418.25;;;33.57;36.58
6136;BME280;24008;42.664;23.372;2023-07-20T07:12:08;94447.38;;;33.89;35.96
6136;BME280;24008;42.664;23.372;2023-07-20T07:14:36;94449.00;;;33.39;36.59
6136;BME280;24008;42.664;23.372;2023-07-20T07:17:03;94459.88;;;32.63;37.82
6136;BME280;24008;42.664;23.372;2023-07-20T07:19:30;94415.03;;;31.86;39.53
6136;BME280;24008;42.664;23.372;2023-07-20T07:21:57;94399.41;;;31.32;40.27
6136;BME280;24008;42.664;23.372;2023-07-20T07:24:24;94482.53;;;30.95;41.71
6136;BME280;24008;42.664;23.372;2023-07-20T07:26:51;94495.41;;;31.07;42.54
6136;BME280;24008;42.664;23.372;2023-07-20T07:29:17;94453.19;;;31.75;40.95
6136;BME280;24008;42.664;23.372;2023-07-20T07:31:45;94492.97;;;33.03;40.01
6136;BME280;24008;42.664;23.372;2023-07-20T07:34:12;94400.22;;;33.08;38.66
6136;BME280;24008;42.664;23.372;2023-07-20T07:36:39;94495.59;;;33.73;36.29
6136;BME280;24008;42.664;23.372;2023-07-20T07:39:05;94477.56;;;33.75;36.73
6136;BME280;24008;42.664;23.372;2023-07-20T07:41:32;94478.84;;;34.37;36.10
6136;BME280;24008;42.664;23.372;2023-07-20T07:43:59;94449.34;;;34.25;35.12
6136;BME280;24008;42.664;23.372;2023-07-20T07:46:26;94479.72;;;34.05;35.71
6136;BME280;24008;42.664;23.372;2023-07-20T07:48:54;94432.09;;;34.27;35.51
6136;BME280;24008;42.664;23.372;2023-07-20T07:51:24;94460.34;;;34.46;34.71
6136;BME280;24008;42.664;23.372;2023-07-20T07:53:52;94456.66;;;34.69;34.78
6136;BME280;24008;42.664;23.372;2023-07-20T07:56:19;94431.72;;;34.56;34.85
6136;BME280;24008;42.664;23.372;2023-07-20T07:58:48;94328.09;;;34.12;34.70
6136;BME280;24008;42.664;23.372;2023-07-20T08:01:14;94448.09;;;35.44;33.38
6136;BME280;24008;42.664;23.372;2023-07-20T08:03:42;94461.31;;;35.80;33.54
6136;BME280;24008;42.664;23.372;2023-07-20T08:06:12;94416.28;;;35.84;32.71
6136;BME280;24008;42.664;23.372;2023-07-20T08:08:39;94423.91;;;35.77;32.48
6136;BME280;24008;42.664;23.372;2023-07-20T08:11:06;94430.19;;;35.81;32.83
6136;BME280;24008;42.664;23.372;2023-07-20T08:13:32;94467.28;;;35.63;34.83
6136;BME280;24008;42.664;23.372;2023-07-20T08:15:59;94493.56;;;35.65;35.53
6136;BME280;24008;42.664;23.372;2023-07-20T08:18:33;94495.88;;;35.58;34.08
6136;BME280;24008;42.664;23.372;2023-07-20T08:21:05;94368.44;;;34.86;34.74
6136;BME280;24008;42.664;23.372;2023-07-20T08:23:36;94489.91;;;35.74;34.42
6136;BME280;24008;42.664;23.372;2023-07-20T08:26:03;94492.44;;;35.80;36.13
6136;BME280;24008;42.664;23.372;2023-07-20T08:28:30;94484.78;;;35.78;36.24
6136;BME280;24008;42.664;23.372;2023-07-20T08:30:57;94390.84;;;34.93;36.27
6136;BME280;24008;42.664;23.372;2023-07-20T08:33:24;94497.81;;;35.08;37.53
6136;BME280;24008;42.664;23.372;2023-07-20T08:35:50;94476.38;;;35.40;36.58
6136;BME280;24008;42.664;23.372;2023-07-20T08:38:17;94489.34;;;35.64;36.52
6136;BME280;24008;42.664;23.372;2023-07-20T08:40:46;94494.31;;;35.79;34.47
6136;BME280;24008;42.664;23.372;2023-07-20T08:43:14;94483.38;;;35.58;34.25
6136;BME280;24008;42.664;23.372;2023-07-20T08:45:42;94480.31;;;35.43;33.18
6136;BME280;24008;42.664;23.372;2023-07-20T08:48:11;94478.81;;;34.23;33.93
6136;BME280;24008;42.664;23.372;2023-07-20T08:50:39;94479.38;;;34.07;35.18
6136;BME280;24008;42.664;23.372;2023-07-20T08:53:06;94398.28;;;33.59;34.70
6136;BME280;24008;42.664;23.372;2023-07-20T08:55:35;94471.34;;;34.12;34.20
6136;BME280;24008;42.664;23.372;2023-07-20T08:58:07;94448.28;;;33.66;35.59
6136;BME280;24008;42.664;23.372;2023-07-20T09:00:34;94409.63;;;34.06;34.48
6136;BME280;24008;42.664;23.372;2023-07-20T09:03:03;94419.47;;;34.33;34.05
6136;BME280;24008;42.664;23.372;2023-07-20T09:05:30;94460.75;;;34.53;34.34
6136;BME280;24008;42.664;23.372;2023-07-20T09:07:56;94392.25;;;34.14;34.92
6136;BME280;24008;42.664;23.372;2023-07-20T09:10:24;94455.44;;;35.02;34.94
6136;BME280;24008;42.664;23.372;2023-07-20T09:12:51;94451.50;;;35.36;34.98
6136;BME280;24008;42.664;23.372;2023-07-20T09:15:19;94447.19;;;35.26;33.55
6136;BME280;24008;42.664;23.372;2023-07-20T09:17:46;94457.72;;;34.95;32.90
6136;BME280;24008;42.664;23.372;2023-07-20T09:20:15;94455.09;;;35.18;34.09
6136;BME280;24008;42.664;23.372;2023-07-20T09:22:42;94438.72;;;35.24;32.83
6136;BME280;24008;42.664;23.372;2023-07-20T09:25:11;94442.19;;;35.47;33.10
6136;BME280;24008;42.664;23.372;2023-07-20T09:27:39;94448.44;;;35.73;32.16
6136;BME280;24008;42.664;23.372;2023-07-20T09:30:08;94437.91;;;35.91;31.38
6136;BME280;24008;42.664;23.372;2023-07-20T09:32:41;94391.78;;;35.95;30.33
6136;BME280;24008;42.664;23.372;2023-07-20T09:35:13;94419.88;;;35.88;30.74
6136;BME280;24008;42.664;23.372;2023-07-20T09:37:41;94453.47;;;36.06;31.63
6136;BME280;24008;42.664;23.372;2023-07-20T09:40:08;94454.13;;;36.20;30.98
6136;BME280;24008;42.664;23.372;2023-07-20T09:42:36;94448.69;;;35.86;31.33
6136;BME280;24008;42.664;23.372;2023-07-20T09:45:07;94439.06;;;36.07;30.34
6136;BME280;24008;42.664;23.372;2023-07-20T09:47:35;94417.44;;;36.00;30.99
6136;BME280;24008;42.664;23.372;2023-07-20T09:50:05;94428.97;;;36.26;31.62
6136;BME280;24008;42.664;23.372;2023-07-20T09:52:37;94428.84;;;36.49;30.10
6136;BME280;24008;42.664;23.372;2023-07-20T09:55:05;94423.88;;;36.56;29.05
6136;BME280;24008;42.664;23.372;2023-07-20T09:57:33;94420.91;;;36.66;29.63
6136;BME280;24008;42.664;23.372;2023-07-20T10:00:00;94349.59;;;36.28;28.81
6136;BME280;24008;42.664;23.372;2023-07-20T10:02:32;94376.59;;;35.65;30.29
6136;BME280;24008;42.664;23.372;2023-07-20T10:05:03;94398.00;;;35.15;31.40
6136;BME280;24008;42.664;23.372;2023-07-20T10:07:31;94372.91;;;34.13;31.55
6136;BME280;24008;42.664;23.372;2023-07-20T10:10:01;94338.22;;;33.41;31.23
6136;BME280;24008;42.664;23.372;2023-07-20T10:12:31;94404.91;;;33.11;32.33
6136;BME280;24008;42.664;23.372;2023-07-20T10:15:06;94401.91;;;32.61;33.63
6136;BME280;24008;42.664;23.372;2023-07-20T10:17:36;94410.78;;;32.09;34.25
6136;BME280;24008;42.664;23.372;2023-07-20T10:20:26;94384.91;;;31.82;33.82
6136;BME280;24008;42.664;23.372;2023-07-20T10:22:54;94387.06;;;31.80;34.93
6136;BME280;24008;42.664;23.372;2023-07-20T10:25:22;94393.19;;;31.75;35.17
6136;BME280;24008;42.664;23.372;2023-07-20T10:27:50;94427.34;;;31.96;35.81
6136;BME280;24008;42.664;23.372;2023-07-20T10:30:18;94423.50;;;32.07;35.74
6136;BME280;24008;42.664;23.372;2023-07-20T10:32:46;94429.22;;;32.14;36.19
6136;BME280;24008;42.664;23.372;2023-07-20T10:35:14;94409.94;;;32.13;36.05
6136;BME280;24008;42.664;23.372;2023-07-20T10:37:51;94405.84;;;32.26;36.54
6136;BME280;24008;42.664;23.372;2023-07-20T10:40:25;94364.81;;;32.05;36.39
6136;BME280;24008;42.664;23.372;2023-07-20T10:42:56;94340.31;;;31.52;36.60
6136;BME280;24008;42.664;23.372;2023-07-20T10:45:33;94420.78;;;31.88;36.19
6136;BME280;24008;42.664;23.372;2023-07-20T10:48:03;94409.97;;;31.61;36.82
6136;BME280;24008;42.664;23.372;2023-07-20T10:50:30;94369.41;;;31.18;35.66
6136;BME280;24008;42.664;23.372;2023-07-20T10:53:12;94313.81;;;30.75;36.26
6136;BME280;24008;42.664;23.372;2023-07-20T10:55:40;94342.13;;;30.59;36.37
6136;BME280;24008;42.664;23.372;2023-07-20T10:58:10;94396.75;;;30.59;37.95
6136;BME280;24008;42.664;23.372;2023-07-20T11:00:38;94293.03;;;30.24;39.49
6136;BME280;24008;42.664;23.372;2023-07-20T11:03:32;94363.34;;;30.83;39.83
6136;BME280;24008;42.664;23.372;2023-07-20T11:05:59;94313.81;;;30.75;38.33
6136;BME280;24008;42.664;23.372;2023-07-20T11:08:42;94333.88;;;30.71;39.96
6136;BME280;24008;42.664;23.372;2023-07-20T11:11:21;94339.44;;;31.03;39.07
6136;BME280;24008;42.664;23.372;2023-07-20T11:13:59;94290.00;;;30.80;38.75
6136;BME280;24008;42.664;23.372;2023-07-20T11:16:40;94343.03;;;31.41;37.83
6136;BME280;24008;42.664;23.372;2023-07-20T11:19:14;94235.69;;;31.03;37.37
6136;BME280;24008;42.664;23.372;2023-07-20T11:21:43;94341.19;;;31.71;38.15
6136;BME280;24008;42.664;23.372;2023-07-20T11:24:12;94336.56;;;31.81;38.63
6136;BME280;24008;42.664;23.372;2023-07-20T11:26:43;94327.09;;;31.99;38.81
6136;BME280;24008;42.664;23.372;2023-07-20T11:29:10;94326.16;;;32.33;39.48
6136;BME280;24008;42.664;23.372;2023-07-20T11:31:38;94323.16;;;32.20;38.46
6136;BME280;24008;42.664;23.372;2023-07-20T11:34:05;94299.19;;;31.88;37.34
6136;BME280;24008;42.664;23.372;2023-07-20T11:36:33;94320.78;;;32.19;37.31
6136;BME280;24008;42.664;23.372;2023-07-20T11:39:00;94315.19;;;32.58;38.51
6136;BME280;24008;42.664;23.372;2023-07-20T11:41:31;94236.56;;;32.45;37.17
6136;BME280;24008;42.664;23.372;2023-07-20T11:44:00;94305.81;;;32.84;37.88
6136;BME280;24008;42.664;23.372;2023-07-20T11:46:27;94257.28;;;32.38;37.04
6136;BME280;24008;42.664;23.372;2023-07-20T11:48:58;94147.34;;;31.62;37.13
6136;BME280;24008;42.664;23.372;2023-07-20T11:51:27;94297.81;;;32.52;38.64
6136;BME280;24008;42.664;23.372;2023-07-20T11:53:54;94291.03;;;32.27;37.91
6136;BME280;24008;42.664;23.372;2023-07-20T11:56:22;94256.06;;;31.93;37.30
6136;BME280;24008;42.664;23.372;2023-07-20T11:58:54;94256.47;;;31.81;37.42
6136;BME280;24008;42.664;23.372;2023-07-20T12:01:21;94230.53;;;31.64;39.01
6136;BME280;24008;42.664;23.372;2023-07-20T12:03:49;94258.06;;;31.82;38.91
6136;BME280;24008;42.664;23.372;2023-07-20T12:06:17;94251.19;;;31.81;38.26
6136;BME280;24008;42.664;23.372;2023-07-20T12:08:44;94177.28;;;31.33;38.23
6136;BME280;24008;42.664;23.372;2023-07-20T12:11:10;94280.34;;;31.95;37.11
6136;BME280;24008;42.664;23.372;2023-07-20T12:13:38;94272.28;;;31.86;38.51
6136;BME280;24008;42.664;23.372;2023-07-20T12:16:14;94269.84;;;31.90;37.20
6136;BME280;24008;42.664;23.372;2023-07-20T12:18:42;94236.50;;;31.75;37.75
6136;BME280;24008;42.664;23.372;2023-07-20T12:21:10;94243.78;;;31.83;37.30
6136;BME280;24008;42.664;23.372;2023-07-20T12:23:41;94257.28;;;32.00;37.32
6136;BME280;24008;42.664;23.372;2023-07-20T12:26:09;94263.69;;;32.13;36.45
6136;BME280;24008;42.664;23.372;2023-07-20T12:28:39;94266.06;;;32.14;36.84
6136;BME280;24008;42.664;23.372;2023-07-20T12:31:06;94236.06;;;32.05;35.22
6136;BME280;24008;42.664;23.372;2023-07-20T12:33:35;94209.78;;;31.95;35.26
6136;BME280;24008;42.664;23.372;2023-07-20T12:36:02;94143.09;;;31.23;34.88
6136;BME280;24008;42.664;23.372;2023-07-20T12:38:29;94256.53;;;32.18;34.76
6136;BME280;24008;42.664;23.372;2023-07-20T12:40:57;94258.63;;;32.16;35.18
6136;BME280;24008;42.664;23.372;2023-07-20T12:43:27;94250.00;;;32.11;34.61
6136;BME280;24008;42.664;23.372;2023-07-20T12:45:54;94254.78;;;32.09;35.04
6136;BME280;24008;42.664;23.372;2023-07-20T12:48:21;94217.41;;;31.97;35.41
6136;BME280;24008;42.664;23.372;2023-07-20T12:50:49;94080.38;;;30.91;34.00
6136;BME280;24008;42.664;23.372;2023-07-20T12:53:16;94251.59;;;32.12;33.42
6136;BME280;24008;42.664;23.372;2023-07-20T12:55:43;94226.19;;;31.92;33.19
6136;BME280;24008;42.664;23.372;2023-07-20T12:58:11;94219.19;;;32.01;33.22
6136;BME280;24008;42.664;23.372;2023-07-20T13:00:38;94247.00;;;32.17;31.85
6136;BME280;24008;42.664;23.372;2023-07-20T13:03:06;94244.22;;;32.28;33.13
6136;BME280;24008;42.664;23.372;2023-07-20T13:05:34;94244.91;;;32.14;32.57
6136;BME280;24008;42.664;23.372;2023-07-20T13:08:03;94223.28;;;31.94;32.39